Arlington, Washington
Current Conditions -  °F | °C
As of 11:55 PM on Tuesday 21 Oct 2014 (Local Time) from KAWO Reporting Station
Overcast Overcast  
Wind Chill: 13°   Ceiling: 6000
Heat Index: 13°   Visibility: 10mi
Dew Point:   Wind: 12mph
Humidity: 72%   Direction: 130°SE
Pressure: 29.74"   Gusts: NA
Location:  48.2°N, 122.13°W
Report Text: KAWO 220655Z AUTO 13010KT 10SM OVC060 13/08 A2974 RMK AO1
Loading
Personal Weather Stations






























Interactive Weather Map
Tropical Storm Tracking
New forecast layout! Learn more

10-Day Weather Forecast

Advertisements
Track Severe Weather on mobile